createdAt,value
2022-10-11T00:00:01.113Z,62.6
2022-10-11T00:01:04.963Z,62.7
2022-10-11T00:02:01.155Z,62.7
2022-10-11T00:03:01.125Z,62.6
2022-10-11T00:04:01.338Z,62.9
2022-10-11T00:05:01.840Z,62.5
2022-10-11T00:06:08.476Z,62.6
2022-10-11T00:07:01.193Z,62.7
2022-10-11T00:08:00.938Z,62.4
2022-10-11T00:09:01.161Z,62.7
2022-10-11T00:10:01.470Z,63
2022-10-11T00:11:12.586Z,63.4
2022-10-11T00:12:02.586Z,63.4
2022-10-11T00:13:01.758Z,63.4
2022-10-11T00:14:02.017Z,63.4
2022-10-11T00:15:02.039Z,63.4
2022-10-11T00:16:14.051Z,63
2022-10-11T00:17:01.315Z,62.6
2022-10-11T00:18:05.353Z,62.9
2022-10-11T00:19:02.387Z,63.4
2022-10-11T00:20:01.192Z,63.4
2022-10-11T00:21:01.140Z,63.4
2022-10-11T00:22:01.046Z,63.4
2022-10-11T00:23:01.173Z,63.6
2022-10-11T00:24:01.057Z,63.4
2022-10-11T00:25:01.051Z,63.3
2022-10-11T00:26:01.119Z,63.5
2022-10-11T00:27:01.088Z,63.2
2022-10-11T00:28:01.083Z,63.5
2022-10-11T00:29:01.337Z,63.1
2022-10-11T00:30:01.966Z,62.7
2022-10-11T00:31:02.370Z,62.6
2022-10-11T00:32:01.125Z,62.8
2022-10-11T00:33:01.113Z,62.9
2022-10-11T00:34:01.698Z,62.7
2022-10-11T00:35:01.711Z,63.3
2022-10-11T00:36:01.590Z,63.4
2022-10-11T00:37:01.165Z,63.4
2022-10-11T00:38:01.266Z,63.4
2022-10-11T00:39:01.434Z,63.4
2022-10-11T00:40:01.540Z,63.4
2022-10-11T00:41:01.174Z,63.4
2022-10-11T00:42:01.044Z,63.8
2022-10-11T00:43:01.093Z,63.7
2022-10-11T00:44:01.087Z,63.4
2022-10-11T00:45:01.052Z,63.4
2022-10-11T00:46:01.329Z,63.4
2022-10-11T00:47:02.133Z,63.4
2022-10-11T00:48:01.152Z,63.6
2022-10-11T00:49:01.132Z,64.5
2022-10-11T00:50:04.143Z,64.4
2022-10-11T00:51:01.467Z,64.3
2022-10-11T00:52:01.320Z,64.5
2022-10-11T00:53:02.571Z,64.6
2022-10-11T00:54:02.502Z,65.3
2022-10-11T00:55:01.443Z,66
2022-10-11T00:56:03.160Z,66.5
2022-10-11T00:57:01.073Z,66.8
2022-10-11T00:58:01.707Z,66.8
2022-10-11T00:59:01.057Z,67.2
2022-10-11T01:00:01.049Z,68
2022-10-11T01:01:01.079Z,68.4
2022-10-11T01:02:01.963Z,68.6
2022-10-11T01:03:02.438Z,69.1
2022-10-11T01:04:01.165Z,69.9
2022-10-11T01:05:25.182Z,70.1
2022-10-11T01:06:01.406Z,70.4
2022-10-11T01:07:01.116Z,71.4
2022-10-11T01:08:01.126Z,71.4
2022-10-11T01:09:01.710Z,72
2022-10-11T01:10:01.103Z,71.6
2022-10-11T01:11:01.431Z,71.5
2022-10-11T01:12:01.893Z,71.5
2022-10-11T01:13:01.065Z,72.8
2022-10-11T01:14:01.065Z,73.3
2022-10-11T01:15:01.799Z,73.4
2022-10-11T01:16:01.409Z,73.4
2022-10-11T01:17:01.234Z,74.2
2022-10-11T01:18:01.475Z,75
2022-10-11T01:19:02.720Z,75.6
2022-10-11T01:20:02.332Z,75.7
2022-10-11T01:21:03.119Z,76.3
2022-10-11T01:22:01.159Z,76.7
2022-10-11T01:23:01.480Z,76.7
2022-10-11T01:24:07.472Z,76.4
2022-10-11T01:25:08.509Z,76.4
2022-10-11T01:26:00.122Z,76.7
2022-10-11T01:26:59.711Z,76.8
2022-10-11T01:28:01.906Z,76.4
2022-10-11T01:29:01.760Z,76.2
2022-10-11T01:30:04.036Z,76.1
2022-10-11T01:31:01.729Z,76.1
2022-10-11T01:32:01.368Z,76.1
2022-10-11T01:33:02.168Z,76.3
2022-10-11T01:34:01.286Z,76.5
2022-10-11T01:35:02.333Z,76.5
2022-10-11T01:36:02.416Z,76.6
2022-10-11T01:37:04.898Z,76.7
2022-10-11T01:38:01.233Z,76.9
2022-10-11T01:39:00.526Z,77.3
2022-10-11T01:40:00.178Z,77.6
2022-10-11T01:40:59.795Z,77.6
2022-10-11T01:42:07.998Z,77.7
2022-10-11T01:43:01.454Z,78
2022-10-11T01:44:01.049Z,78.2
2022-10-11T01:45:01.059Z,78.2
2022-10-11T01:46:01.307Z,78.2
2022-10-11T01:47:11.518Z,78
2022-10-11T01:48:01.051Z,77.7
2022-10-11T01:49:01.367Z,77.7
2022-10-11T01:50:02.037Z,77.6
2022-10-11T01:51:05.079Z,77.5
2022-10-11T01:52:13.935Z,77
2022-10-11T01:53:01.122Z,76.5
2022-10-11T01:54:01.187Z,75.5
2022-10-11T01:55:09.533Z,75.1
2022-10-11T01:56:04.175Z,75.1
2022-10-11T01:57:16.697Z,74.5
2022-10-11T01:58:00.837Z,74.1
2022-10-11T01:59:00.556Z,73.3
2022-10-11T02:00:00.235Z,72
2022-10-11T02:00:59.988Z,71.5
2022-10-11T02:01:59.724Z,70.2
2022-10-11T02:03:01.743Z,66.4
2022-10-11T02:04:01.804Z,64.9
2022-10-11T02:05:01.792Z,63.1
2022-10-11T02:06:01.323Z,61.8
2022-10-11T02:07:02.111Z,61.1
2022-10-11T02:08:02.229Z,59.9
2022-10-11T02:09:04.467Z,58.9
2022-10-11T02:10:01.133Z,58.8
2022-10-11T02:11:01.127Z,58.2
2022-10-11T02:12:00.520Z,58.1
2022-10-11T02:13:00.223Z,57.7
2022-10-11T02:14:00.382Z,57
2022-10-11T02:15:00.013Z,56.7
2022-10-11T02:15:59.561Z,56.6
2022-10-11T02:17:01.138Z,56.5
2022-10-11T02:18:01.057Z,56.1
2022-10-11T02:19:01.061Z,55.9
2022-10-11T02:20:01.083Z,55.5
2022-10-11T02:21:01.101Z,55.5
2022-10-11T02:22:01.132Z,55.4
2022-10-11T02:23:01.481Z,55.1
2022-10-11T02:24:01.814Z,55.1
2022-10-11T02:25:01.245Z,55
2022-10-11T02:26:00.901Z,54.5
2022-10-11T02:27:01.062Z,54.5
2022-10-11T02:28:01.982Z,54.3
2022-10-11T02:29:01.468Z,54.1
2022-10-11T02:30:01.207Z,54
2022-10-11T02:31:01.276Z,53.7
2022-10-11T02:32:01.196Z,53.5
2022-10-11T02:33:01.104Z,53.6
2022-10-11T02:34:01.083Z,53.7
2022-10-11T02:35:01.083Z,53.7
2022-10-11T02:36:01.160Z,53.7
2022-10-11T02:37:01.906Z,53.5
2022-10-11T02:38:01.478Z,53.4
2022-10-11T02:39:01.508Z,53.2
2022-10-11T02:40:01.225Z,53.3
2022-10-11T02:41:01.982Z,53.1
2022-10-11T02:42:01.152Z,52.8
2022-10-11T02:43:01.053Z,52.5
2022-10-11T02:44:01.110Z,52.1
2022-10-11T02:45:01.195Z,49.7
2022-10-11T02:46:01.641Z,48.8
2022-10-11T02:47:01.160Z,48.7
2022-10-11T02:48:01.686Z,48.4
2022-10-11T02:49:00.851Z,47.3
2022-10-11T02:50:00.442Z,45.1
2022-10-11T02:51:00.051Z,44.4
2022-10-11T02:51:59.646Z,43.3
2022-10-11T02:53:01.701Z,40.9
2022-10-11T02:54:02.516Z,39.2
2022-10-11T02:55:01.330Z,38.8
2022-10-11T02:56:01.375Z,38.5
2022-10-11T02:57:02.222Z,37
2022-10-11T02:58:02.184Z,36.1
2022-10-11T02:59:01.870Z,35.5
2022-10-11T03:00:01.071Z,34.8
2022-10-11T03:01:01.073Z,33.7
2022-10-11T03:02:01.190Z,33.4
2022-10-11T03:03:01.158Z,33.4
2022-10-11T03:04:01.103Z,31.7
2022-10-11T03:05:01.550Z,31.9
2022-10-11T03:06:01.874Z,31.5
2022-10-11T03:07:01.475Z,31
2022-10-11T03:08:01.204Z,30.8
2022-10-11T03:09:01.874Z,30.1
2022-10-11T03:10:01.058Z,29.9
2022-10-11T03:11:01.131Z,29
2022-10-11T03:12:01.113Z,28.9
2022-10-11T03:13:01.024Z,29
2022-10-11T03:14:01.542Z,28.8
2022-10-11T03:15:01.135Z,28.2
2022-10-11T03:16:03.711Z,26.5
2022-10-11T03:17:23.756Z,26.5
2022-10-11T03:18:03.546Z,26.5
2022-10-11T03:19:01.702Z,26.5
2022-10-11T03:20:01.107Z,26.6
2022-10-11T03:21:01.196Z,26.6
2022-10-11T03:22:01.219Z,26.3
2022-10-11T03:23:06.741Z,25.8
2022-10-11T03:24:01.087Z,25.9
2022-10-11T03:25:04.007Z,26.1
2022-10-11T03:26:02.028Z,25.7
2022-10-11T03:27:02.481Z,25.8
2022-10-11T03:28:09.458Z,25.9
2022-10-11T03:29:01.689Z,26.1
2022-10-11T03:30:01.220Z,26.2
2022-10-11T03:31:01.129Z,26.2
2022-10-11T03:32:01.186Z,26.4
2022-10-11T03:33:10.944Z,26.3
2022-10-11T03:34:01.574Z,26.2
2022-10-11T03:35:01.050Z,26.4
2022-10-11T03:36:01.074Z,26.3
2022-10-11T03:37:01.066Z,26.4
2022-10-11T03:38:15.121Z,26.5
2022-10-11T03:39:01.053Z,26.6
2022-10-11T03:40:01.213Z,26.7
2022-10-11T03:41:01.487Z,26.7
2022-10-11T03:42:01.278Z,26.8
2022-10-11T03:43:16.779Z,26.7
2022-10-11T03:44:02.270Z,26.5
2022-10-11T03:45:01.715Z,26.5
2022-10-11T03:46:02.125Z,26.6
2022-10-11T03:47:01.132Z,26.6
2022-10-11T03:48:01.170Z,26.7
2022-10-11T03:49:01.136Z,26.6
2022-10-11T03:50:01.037Z,26.6
2022-10-11T03:51:01.169Z,26.7
2022-10-11T03:52:01.459Z,26.6
2022-10-11T03:53:01.182Z,26.5
2022-10-11T03:54:01.070Z,26.4
2022-10-11T03:55:01.015Z,26.4
2022-10-11T03:56:05.914Z,26
2022-10-11T03:57:01.753Z,26
2022-10-11T03:58:01.136Z,26.1
2022-10-11T03:59:01.208Z,26.4
2022-10-11T04:00:01.212Z,26.5
2022-10-11T04:01:01.219Z,26.9
2022-10-11T04:02:01.383Z,26.8
2022-10-11T04:03:01.501Z,26.8
2022-10-11T04:04:01.144Z,26.7
2022-10-11T04:05:01.800Z,26.8
2022-10-11T04:06:01.230Z,26.8
2022-10-11T04:07:02.398Z,26.6
2022-10-11T04:08:01.975Z,26.5
2022-10-11T04:09:00.975Z,26.4
2022-10-11T04:10:03.565Z,26.3
2022-10-11T04:11:01.145Z,26.2
2022-10-11T04:12:01.381Z,26.2
2022-10-11T04:13:01.487Z,26.1
2022-10-11T04:14:01.786Z,26.1
2022-10-11T04:15:01.134Z,25.9
2022-10-11T04:16:01.285Z,26
2022-10-11T04:17:01.160Z,25.8
2022-10-11T04:18:01.144Z,25.8
2022-10-11T04:19:00.760Z,25.8
2022-10-11T04:20:00.723Z,25.7
2022-10-11T04:21:00.754Z,25.6
2022-10-11T04:22:00.402Z,25.7
2022-10-11T04:23:00.260Z,25.6
2022-10-11T04:23:59.880Z,25.7
2022-10-11T04:24:59.525Z,25.7
2022-10-11T04:26:02.155Z,25.6
2022-10-11T04:27:01.200Z,25.7
2022-10-11T04:28:01.389Z,25.6
2022-10-11T04:29:01.418Z,25.5
2022-10-11T04:30:01.092Z,25.6
2022-10-11T04:31:01.109Z,25.6
2022-10-11T04:32:01.166Z,25.5
2022-10-11T04:33:01.394Z,25.1
2022-10-11T04:34:01.458Z,25.1
2022-10-11T04:35:01.389Z,25
2022-10-11T04:36:03.061Z,24.5
2022-10-11T04:37:01.711Z,24.7
2022-10-11T04:38:01.174Z,24.4
2022-10-11T04:39:02.253Z,24.4
2022-10-11T04:40:01.784Z,24.1
2022-10-11T04:41:01.875Z,24.1
2022-10-11T04:42:01.076Z,24.1
2022-10-11T04:43:01.092Z,24.1
2022-10-11T04:44:01.102Z,24
2022-10-11T04:45:01.090Z,24.1
2022-10-11T04:46:01.497Z,24
2022-10-11T04:47:01.089Z,24
2022-10-11T04:48:01.037Z,24
2022-10-11T04:49:01.110Z,24
2022-10-11T04:50:01.024Z,24.2
2022-10-11T04:51:01.125Z,24.2
2022-10-11T04:52:01.134Z,24.2
2022-10-11T04:53:00.820Z,24.4
2022-10-11T04:54:00.426Z,24.4
2022-10-11T04:55:00.008Z,24.6
2022-10-11T04:55:59.611Z,24.6
2022-10-11T04:57:02.121Z,24.8
2022-10-11T04:58:01.427Z,24.8
2022-10-11T04:59:01.135Z,25
2022-10-11T05:00:01.873Z,25
2022-10-11T05:01:01.242Z,24.9
2022-10-11T05:02:02.034Z,25.2
2022-10-11T05:03:01.052Z,30
2022-10-11T05:04:00.913Z,28.7
2022-10-11T05:05:01.158Z,26.9
2022-10-11T05:06:05.446Z,25.8
2022-10-11T05:07:01.040Z,24.8
2022-10-11T05:08:01.040Z,24.5
2022-10-11T05:09:04.157Z,24.2
2022-10-11T05:10:01.315Z,24
2022-10-11T05:11:01.869Z,23.8
2022-10-11T05:12:01.053Z,23.8
2022-10-11T05:13:00.688Z,23.5
2022-10-11T05:14:05.101Z,23.2
2022-10-11T05:15:01.273Z,23
2022-10-11T05:16:01.293Z,22.8
2022-10-11T05:17:01.185Z,23
2022-10-11T05:18:01.474Z,22.9
2022-10-11T05:19:08.132Z,22.6
2022-10-11T05:20:01.075Z,22.4
2022-10-11T05:21:04.444Z,21.8
2022-10-11T05:22:01.515Z,21.4
2022-10-11T05:23:02.139Z,21.2
2022-10-11T05:24:11.976Z,20.7
2022-10-11T05:25:01.255Z,20.8
2022-10-11T05:26:01.377Z,20.4
2022-10-11T05:27:03.510Z,20.7
2022-10-11T05:28:01.832Z,20.9
2022-10-11T05:29:14.761Z,21.1
2022-10-11T05:30:01.301Z,21.3
2022-10-11T05:31:01.343Z,20.7
2022-10-11T05:32:01.369Z,20.5
2022-10-11T05:33:00.961Z,20.3
2022-10-11T05:34:16.778Z,19.6
2022-10-11T05:35:04.194Z,20
2022-10-11T05:36:02.328Z,19.8
2022-10-11T05:37:01.793Z,19.6
2022-10-11T05:38:01.136Z,19.7
2022-10-11T05:39:01.144Z,19.6
2022-10-11T05:40:01.152Z,19.6
2022-10-11T05:41:01.143Z,19.5
2022-10-11T05:42:01.137Z,19.5
2022-10-11T05:43:01.061Z,19.6
2022-10-11T05:44:01.056Z,19.9
2022-10-11T05:45:01.067Z,19.9
2022-10-11T05:46:02.118Z,20.7
2022-10-11T05:47:01.762Z,20.6
2022-10-11T05:48:02.754Z,20.6
2022-10-11T05:49:01.792Z,20.6
2022-10-11T05:50:01.106Z,20.2
2022-10-11T05:51:01.046Z,20.1
2022-10-11T05:52:01.185Z,20.1
2022-10-11T05:53:01.694Z,20.1
2022-10-11T05:54:01.437Z,20.1
2022-10-11T05:55:01.042Z,20.1
2022-10-11T05:56:01.088Z,20.1
2022-10-11T05:57:01.042Z,20.1
2022-10-11T05:58:01.146Z,20.3
2022-10-11T05:59:02.578Z,20.1
2022-10-11T06:00:01.075Z,20.1
2022-10-11T06:01:01.268Z,20.4
2022-10-11T06:02:01.765Z,20.5
2022-10-11T06:03:01.204Z,20.6
2022-10-11T06:04:01.136Z,20.5
2022-10-11T06:05:01.074Z,20.7
2022-10-11T06:06:00.774Z,20.6
2022-10-11T06:07:00.493Z,20.5
2022-10-11T06:08:00.174Z,20.7
2022-10-11T06:08:59.787Z,20.8
2022-10-11T06:10:01.381Z,20.9
2022-10-11T06:11:02.103Z,21.2
2022-10-11T06:12:02.185Z,21.4
2022-10-11T06:13:01.042Z,21.5
2022-10-11T06:14:00.553Z,21.5
2022-10-11T06:15:00.223Z,21.7
2022-10-11T06:15:59.872Z,21.7
2022-10-11T06:16:59.494Z,21.8
2022-10-11T06:18:01.141Z,21.8
2022-10-11T06:19:01.107Z,21.9
2022-10-11T06:20:00.900Z,22.1
2022-10-11T06:21:01.474Z,22.1
2022-10-11T06:22:01.037Z,22.4
2022-10-11T06:23:01.132Z,22.4
2022-10-11T06:24:01.740Z,22.9
2022-10-11T06:25:01.205Z,23.4
2022-10-11T06:26:02.579Z,23.7
2022-10-11T06:27:01.956Z,23.8
2022-10-11T06:28:01.449Z,23.8
2022-10-11T06:29:01.579Z,23.7
2022-10-11T06:30:01.348Z,23.8
2022-10-11T06:31:01.352Z,23.7
2022-10-11T06:32:01.078Z,23.3
2022-10-11T06:33:04.622Z,23.3
2022-10-11T06:34:02.597Z,23.6
2022-10-11T06:35:01.807Z,23.2
2022-10-11T06:36:01.833Z,23.2
2022-10-11T06:37:01.227Z,23.2
2022-10-11T06:38:01.101Z,23.3
2022-10-11T06:39:01.067Z,23.4
2022-10-11T06:40:01.152Z,23.5
2022-10-11T06:41:02.052Z,23.5
2022-10-11T06:42:01.008Z,23.2
2022-10-11T06:43:00.707Z,23
2022-10-11T06:44:00.701Z,23.2
2022-10-11T06:45:00.428Z,23.1
2022-10-11T06:46:00.143Z,22.8
2022-10-11T06:46:59.744Z,22.8
2022-10-11T06:48:01.360Z,22.9
2022-10-11T06:49:02.064Z,23
2022-10-11T06:50:01.060Z,22.9
2022-10-11T06:51:01.199Z,23
2022-10-11T06:52:01.893Z,23.1
2022-10-11T06:53:01.904Z,23.1
2022-10-11T06:54:01.097Z,23.2
2022-10-11T06:55:01.315Z,23.2
2022-10-11T06:56:01.591Z,23.4
2022-10-11T06:57:01.105Z,23.5
2022-10-11T06:58:01.059Z,23.6
2022-10-11T06:59:01.043Z,24
2022-10-11T07:00:03.490Z,24.2
2022-10-11T07:01:01.849Z,24.2
2022-10-11T07:02:01.052Z,24.2
2022-10-11T07:03:01.061Z,24.2
2022-10-11T07:04:01.069Z,24.3
2022-10-11T07:05:05.622Z,24.3
2022-10-11T07:06:02.571Z,24.5
2022-10-11T07:07:01.707Z,24.5
2022-10-11T07:08:01.448Z,24.7
2022-10-11T07:09:02.526Z,24.8
2022-10-11T07:10:07.637Z,24.9
2022-10-11T07:11:01.314Z,25.3
2022-10-11T07:12:01.185Z,25.4
2022-10-11T07:13:01.132Z,25.8
2022-10-11T07:14:01.467Z,26.6
2022-10-11T07:15:10.128Z,27.1
2022-10-11T07:16:01.103Z,27.9
2022-10-11T07:17:01.365Z,28.2
2022-10-11T07:18:01.367Z,28.7
2022-10-11T07:19:01.545Z,29.1
2022-10-11T07:20:13.142Z,29.7
2022-10-11T07:21:01.744Z,30
2022-10-11T07:22:01.061Z,30.2
2022-10-11T07:23:01.085Z,30.5
2022-10-11T07:24:01.151Z,30.5
2022-10-11T07:25:14.733Z,30.5
2022-10-11T07:26:01.045Z,30.5
2022-10-11T07:27:01.101Z,30.5
2022-10-11T07:28:01.117Z,31.3
2022-10-11T07:29:01.226Z,31.6
2022-10-11T07:30:16.473Z,31.8
2022-10-11T07:31:01.386Z,32.7
2022-10-11T07:32:01.058Z,32.8
2022-10-11T07:33:01.385Z,32.8
2022-10-11T07:34:02.135Z,33.3
2022-10-11T07:35:02.081Z,33.4
2022-10-11T07:36:01.170Z,33.5
2022-10-11T07:37:01.347Z,33.6
2022-10-11T07:38:01.372Z,33.6
2022-10-11T07:39:02.657Z,34
2022-10-11T07:40:02.096Z,34.6
2022-10-11T07:41:01.902Z,34.7
2022-10-11T07:42:01.937Z,34.9
2022-10-11T07:43:01.058Z,35.2
2022-10-11T07:44:01.138Z,35
2022-10-11T07:45:01.054Z,34.8
2022-10-11T07:46:01.370Z,35
2022-10-11T07:47:11.228Z,35.1
2022-10-11T07:48:02.159Z,35
2022-10-11T07:49:01.236Z,34.9
2022-10-11T07:50:01.137Z,34.7
2022-10-11T07:51:01.157Z,34.6
2022-10-11T07:52:01.445Z,34.4
2022-10-11T07:53:01.122Z,34.7
2022-10-11T07:54:06.104Z,35
2022-10-11T07:55:01.067Z,35.1
2022-10-11T07:56:01.228Z,34.6
2022-10-11T07:57:01.091Z,34.4
2022-10-11T07:58:01.098Z,34.5
2022-10-11T07:59:01.093Z,34.7
2022-10-11T08:00:01.103Z,34.5
2022-10-11T08:01:01.179Z,34.6
2022-10-11T08:02:01.227Z,34.8
2022-10-11T08:03:01.889Z,34.9
2022-10-11T08:04:02.305Z,34.4
2022-10-11T08:05:00.775Z,33.8
2022-10-11T08:06:00.412Z,33.6
2022-10-11T08:07:00.063Z,33.7
2022-10-11T08:07:59.717Z,33.6
2022-10-11T08:09:01.350Z,33.3
2022-10-11T08:10:02.604Z,33.5
2022-10-11T08:11:02.608Z,34
2022-10-11T08:12:01.103Z,33.2
2022-10-11T08:13:04.431Z,32.2
2022-10-11T08:14:01.638Z,32.5
2022-10-11T08:15:01.222Z,32.4
2022-10-11T08:16:02.112Z,32.2
2022-10-11T08:17:01.871Z,32
2022-10-11T08:18:01.103Z,31.9
2022-10-11T08:19:01.084Z,31.8
2022-10-11T08:20:01.501Z,31.9
2022-10-11T08:21:01.570Z,32
2022-10-11T08:22:00.725Z,32
2022-10-11T08:23:00.373Z,32.1
2022-10-11T08:23:59.971Z,31.4
2022-10-11T08:24:59.603Z,31.3
2022-10-11T08:26:01.733Z,31
2022-10-11T08:27:01.089Z,30.7
2022-10-11T08:28:01.097Z,31.2
2022-10-11T08:29:01.357Z,30.8
2022-10-11T08:30:01.093Z,30.3
2022-10-11T08:31:01.106Z,29.9
2022-10-11T08:32:01.096Z,30
2022-10-11T08:33:04.987Z,29.7
2022-10-11T08:34:02.671Z,29.6
2022-10-11T08:35:02.110Z,29.8
2022-10-11T08:36:02.471Z,29.8
2022-10-11T08:37:02.049Z,29.4
2022-10-11T08:38:01.177Z,29
2022-10-11T08:39:01.156Z,28.9
2022-10-11T08:40:01.160Z,29.2
2022-10-11T08:41:01.109Z,30
2022-10-11T08:42:01.067Z,30
2022-10-11T08:43:01.090Z,29.8
2022-10-11T08:44:01.083Z,28.7
2022-10-11T08:45:16.441Z,28.3
2022-10-11T08:46:04.464Z,27.5
2022-10-11T08:47:01.601Z,27.1
2022-10-11T08:48:01.240Z,27.2
2022-10-11T08:49:01.973Z,27.3
2022-10-11T08:50:01.812Z,27.6
2022-10-11T08:51:05.869Z,27.2
2022-10-11T08:52:02.671Z,27
2022-10-11T08:53:01.540Z,26.3
2022-10-11T08:54:06.360Z,25.9
2022-10-11T08:55:01.773Z,25.7
2022-10-11T08:56:09.722Z,26
2022-10-11T08:57:01.136Z,26.4
2022-10-11T08:58:01.720Z,26.2
2022-10-11T08:59:00.869Z,25.5
2022-10-11T09:00:00.564Z,25.8
2022-10-11T09:01:10.639Z,27.1
2022-10-11T09:02:02.218Z,26.4
2022-10-11T09:03:08.669Z,25.5
2022-10-11T09:04:01.904Z,25.6
2022-10-11T09:05:02.773Z,25.1
2022-10-11T09:06:13.886Z,25.2
2022-10-11T09:07:04.936Z,24.7
2022-10-11T09:08:01.051Z,23.9
2022-10-11T09:09:01.428Z,23.5
2022-10-11T09:10:01.157Z,23.6
2022-10-11T09:11:01.146Z,22.8
2022-10-11T09:12:01.152Z,22.4
2022-10-11T09:13:01.068Z,22.6
2022-10-11T09:14:00.708Z,22.2
2022-10-11T09:15:00.340Z,22.5
2022-10-11T09:15:59.939Z,21.7
2022-10-11T09:16:59.531Z,21.5
2022-10-11T09:18:02.211Z,21.6
2022-10-11T09:19:02.166Z,20.8
2022-10-11T09:20:01.100Z,20.8
2022-10-11T09:21:01.136Z,20.2
2022-10-11T09:22:01.212Z,20.1
2022-10-11T09:23:01.798Z,20.1
2022-10-11T09:24:01.052Z,20.9
2022-10-11T09:25:01.259Z,20
2022-10-11T09:26:01.172Z,17.7
2022-10-11T09:27:01.423Z,17.6
2022-10-11T09:28:03.248Z,17.6
2022-10-11T09:29:01.671Z,17.8
2022-10-11T09:30:01.068Z,17.8
2022-10-11T09:31:01.050Z,18.4
2022-10-11T09:32:01.241Z,18.3
2022-10-11T09:33:01.477Z,16.9
2022-10-11T09:34:00.671Z,16.1
2022-10-11T09:35:00.307Z,16.1
2022-10-11T09:35:59.887Z,16
2022-10-11T09:36:59.445Z,16.2
2022-10-11T09:38:01.059Z,15.7
2022-10-11T09:39:06.351Z,15.7
2022-10-11T09:40:01.147Z,15.8
2022-10-11T09:41:01.138Z,15.5
2022-10-11T09:42:01.553Z,15.1
2022-10-11T09:43:01.166Z,14.5
2022-10-11T09:44:01.146Z,14.2
2022-10-11T09:45:01.051Z,14.2
2022-10-11T09:46:01.069Z,13.6
2022-10-11T09:47:01.235Z,12.9
2022-10-11T09:48:01.124Z,12.6
2022-10-11T09:49:01.126Z,12.8
2022-10-11T09:50:01.041Z,12.9
2022-10-11T09:51:01.496Z,13
2022-10-11T09:52:01.110Z,13.7
2022-10-11T09:53:01.117Z,12.5
2022-10-11T09:54:00.790Z,12
2022-10-11T09:55:01.119Z,11.2
2022-10-11T09:56:01.125Z,9.8
2022-10-11T09:57:01.217Z,9.8
2022-10-11T09:58:01.666Z,10.2
2022-10-11T09:59:01.059Z,10.2
2022-10-11T10:00:01.145Z,10.1
2022-10-11T10:01:07.345Z,10.3
2022-10-11T10:02:01.895Z,10.1
2022-10-11T10:03:01.781Z,9.8
2022-10-11T10:04:01.985Z,9
2022-10-11T10:05:01.792Z,9.3
2022-10-11T10:06:02.487Z,9
2022-10-11T10:07:01.881Z,8.6
2022-10-11T10:08:04.823Z,8.1
2022-10-11T10:09:01.128Z,7.7
2022-10-11T10:10:01.119Z,7.1
2022-10-11T10:11:01.144Z,6.8
2022-10-11T10:12:01.528Z,6.4
2022-10-11T10:13:01.360Z,6
2022-10-11T10:14:01.080Z,5.1
2022-10-11T10:15:01.057Z,4.8
2022-10-11T10:16:01.151Z,2.3
2022-10-11T10:17:01.069Z,1.2
2022-10-11T10:18:01.075Z,1
2022-10-11T10:19:03.784Z,1
2022-10-11T10:20:01.289Z,1
2022-10-11T10:21:01.324Z,1
2022-10-11T10:22:01.848Z,1
2022-10-11T10:23:02.021Z,1.2
2022-10-11T10:24:01.423Z,1
2022-10-11T10:25:01.120Z,1
2022-10-11T10:26:01.147Z,1
2022-10-11T10:27:04.210Z,1
2022-10-11T10:28:01.152Z,1
2022-10-11T10:29:01.248Z,1
2022-10-11T10:30:01.140Z,1
2022-10-11T10:31:01.481Z,1
2022-10-11T10:32:14.214Z,1
2022-10-11T10:33:01.169Z,1
2022-10-11T10:34:00.850Z,1
2022-10-11T10:35:00.446Z,1
2022-10-11T10:36:00.027Z,1
2022-10-11T10:37:08.967Z,1
2022-10-11T10:38:01.773Z,1
2022-10-11T10:39:01.094Z,1
2022-10-11T10:40:01.099Z,1
2022-10-11T10:41:01.046Z,1
2022-10-11T10:42:11.662Z,1
2022-10-11T10:43:01.079Z,1
2022-10-11T10:44:01.133Z,1
2022-10-11T10:45:01.156Z,1
2022-10-11T10:46:01.067Z,1
2022-10-11T10:47:15.426Z,1
2022-10-11T10:48:01.452Z,1
2022-10-11T10:49:28.753Z,1
2022-10-11T10:50:01.085Z,1
2022-10-11T10:51:01.043Z,1
2022-10-11T10:52:01.074Z,1
2022-10-11T10:53:01.701Z,1
2022-10-11T10:54:01.483Z,1
2022-10-11T10:55:01.705Z,1
2022-10-11T10:56:01.124Z,1
2022-10-11T10:57:01.490Z,1
2022-10-11T10:58:01.125Z,1
2022-10-11T10:59:01.132Z,1
2022-10-11T11:00:01.130Z,1
2022-10-11T11:01:02.567Z,1
2022-10-11T11:02:16.055Z,1
2022-10-11T11:03:01.428Z,1
2022-10-11T11:04:01.258Z,1
2022-10-11T11:05:01.454Z,1
2022-10-11T11:06:01.512Z,1
2022-10-11T11:07:01.428Z,1
2022-10-11T11:08:02.148Z,1
2022-10-11T11:09:03.021Z,1
2022-10-11T11:10:01.892Z,1
2022-10-11T11:11:00.797Z,1
2022-10-11T11:12:00.377Z,1
2022-10-11T11:13:00.003Z,1
2022-10-11T11:13:59.585Z,1
2022-10-11T11:15:01.275Z,1
2022-10-11T11:16:01.299Z,1
2022-10-11T11:17:01.306Z,1
2022-10-11T11:18:01.177Z,1
2022-10-11T11:19:01.183Z,1
2022-10-11T11:20:02.023Z,1
2022-10-11T11:21:01.155Z,1
2022-10-11T11:22:01.187Z,1
2022-10-11T11:23:01.094Z,1
2022-10-11T11:24:01.103Z,1
2022-10-11T11:25:01.659Z,1
2022-10-11T11:26:01.055Z,1
2022-10-11T11:27:01.090Z,1
2022-10-11T11:28:01.104Z,1
2022-10-11T11:29:01.065Z,1
2022-10-11T11:30:01.134Z,1
2022-10-11T11:31:00.801Z,1
2022-10-11T11:32:00.426Z,1
2022-10-11T11:33:00.117Z,1
2022-10-11T11:33:59.810Z,1
2022-10-11T11:35:01.580Z,1
2022-10-11T11:36:01.708Z,1
2022-10-11T11:37:01.069Z,1
2022-10-11T11:38:06.187Z,1
2022-10-11T11:39:01.056Z,1
2022-10-11T11:40:01.205Z,1
2022-10-11T11:41:01.480Z,1
2022-10-11T11:42:01.465Z,1
2022-10-11T11:43:01.064Z,1
2022-10-11T11:44:01.039Z,1
2022-10-11T11:45:01.040Z,1
2022-10-11T11:46:01.051Z,1
2022-10-11T11:47:01.118Z,1
2022-10-11T11:48:01.141Z,1
2022-10-11T11:49:01.143Z,1
2022-10-11T11:50:01.714Z,1
2022-10-11T11:51:01.138Z,1
2022-10-11T11:52:01.064Z,1
2022-10-11T11:53:01.056Z,1
2022-10-11T11:54:01.248Z,1
2022-10-11T11:55:04.001Z,1
2022-10-11T11:56:01.075Z,1
2022-10-11T11:57:01.084Z,1
2022-10-11T11:58:06.797Z,1
2022-10-11T11:59:01.055Z,1
2022-10-11T12:00:01.045Z,1
2022-10-11T12:01:01.062Z,1
2022-10-11T12:02:01.612Z,1
2022-10-11T12:03:01.349Z,1
2022-10-11T12:04:01.122Z,1
2022-10-11T12:05:01.129Z,1
2022-10-11T12:06:01.499Z,1
2022-10-11T12:07:15.350Z,1
2022-10-11T12:08:02.055Z,1
2022-10-11T12:09:01.142Z,1
2022-10-11T12:10:01.083Z,1
2022-10-11T12:11:01.062Z,1
2022-10-11T12:12:01.085Z,1
2022-10-11T12:13:03.414Z,1
2022-10-11T12:14:02.001Z,1
2022-10-11T12:15:01.200Z,1
2022-10-11T12:16:01.104Z,1
2022-10-11T12:17:01.105Z,1
2022-10-11T12:18:04.783Z,1
2022-10-11T12:19:01.415Z,1
2022-10-11T12:20:01.115Z,1
2022-10-11T12:21:01.519Z,1
2022-10-11T12:22:01.129Z,1
2022-10-11T12:23:07.905Z,1
2022-10-11T12:24:01.161Z,1
2022-10-11T12:25:01.071Z,1
2022-10-11T12:26:01.059Z,1
2022-10-11T12:27:01.068Z,1
2022-10-11T12:28:10.605Z,1
2022-10-11T12:29:01.466Z,1
2022-10-11T12:30:02.632Z,1
2022-10-11T12:31:01.090Z,1
2022-10-11T12:32:01.109Z,1
2022-10-11T12:33:13.683Z,1
2022-10-11T12:34:01.121Z,1
2022-10-11T12:35:01.114Z,1
2022-10-11T12:36:04.125Z,1
2022-10-11T12:37:04.590Z,1
2022-10-11T12:38:16.237Z,1
2022-10-11T12:39:02.201Z,1
2022-10-11T12:40:01.181Z,1
2022-10-11T12:41:01.060Z,1
2022-10-11T12:42:05.774Z,1
2022-10-11T12:43:01.076Z,1
2022-10-11T12:44:01.087Z,1
2022-10-11T12:45:01.785Z,1
2022-10-11T12:46:01.228Z,1
2022-10-11T12:47:01.098Z,1
2022-10-11T12:48:01.426Z,1
2022-10-11T12:49:01.212Z,1
2022-10-11T12:50:01.858Z,1
2022-10-11T12:51:03.230Z,1
2022-10-11T12:52:02.692Z,1
2022-10-11T12:53:01.618Z,1
2022-10-11T12:54:25.344Z,1
2022-10-11T12:55:01.441Z,1
2022-10-11T12:56:01.546Z,1
2022-10-11T12:57:01.447Z,1
2022-10-11T12:58:01.059Z,1
2022-10-11T12:59:01.065Z,1
2022-10-11T13:00:01.087Z,1
2022-10-11T13:01:01.224Z,1
2022-10-11T13:02:01.109Z,1
2022-10-11T13:03:01.095Z,1
2022-10-11T13:04:01.101Z,1
2022-10-11T13:05:01.130Z,1
2022-10-11T13:06:02.046Z,1
2022-10-11T13:07:05.867Z,1
2022-10-11T13:08:01.358Z,1
2022-10-11T13:09:01.130Z,1
2022-10-11T13:10:01.157Z,1
2022-10-11T13:11:01.165Z,1
2022-10-11T13:12:01.159Z,1
2022-10-11T13:13:01.771Z,1
2022-10-11T13:14:01.085Z,1
2022-10-11T13:15:01.422Z,1
2022-10-11T13:16:01.346Z,1
2022-10-11T13:17:01.380Z,1
2022-10-11T13:18:01.373Z,1
2022-10-11T13:19:01.565Z,1
2022-10-11T13:20:02.019Z,1
2022-10-11T13:21:01.150Z,1
2022-10-11T13:22:01.121Z,1
2022-10-11T13:23:01.123Z,1
2022-10-11T13:24:01.126Z,1
2022-10-11T13:25:01.041Z,1
2022-10-11T13:26:01.249Z,1
2022-10-11T13:27:01.566Z,1
2022-10-11T13:28:00.939Z,1
2022-10-11T13:29:01.043Z,1
2022-10-11T13:30:01.065Z,1
2022-10-11T13:31:01.854Z,1
2022-10-11T13:32:02.622Z,1
2022-10-11T13:33:01.997Z,1
2022-10-11T13:34:01.773Z,1
2022-10-11T13:35:00.687Z,1
2022-10-11T13:36:00.275Z,1
2022-10-11T13:36:59.863Z,1
2022-10-11T13:38:01.529Z,1
2022-10-11T13:39:01.122Z,1
2022-10-11T13:40:01.458Z,1
2022-10-11T13:41:01.516Z,1
2022-10-11T13:42:00.897Z,1
2022-10-11T13:43:01.065Z,1